Xenia, Illinois
Current Conditions -  °F | °C
As of 4:35 AM on Wednesday 22 Oct 2014 (Local Time) from KFOA Reporting Station
Clear Clear  
Wind Chill:   Ceiling: Unl
Heat Index:   Visibility: 10mi
Dew Point:   Wind: 5mph
Humidity: 92%   Direction: 30°NNE
Pressure: 30.25"   Gusts: NA
Location:  38.64°N, 88.63°W
Report Text: KFOA 220935Z AUTO 03004KT 10SM CLR 05/04 A3025 RMK AO2 T00530041
Loading
Personal Weather Stations






























Interactive Weather Map
Tropical Storm Tracking
New forecast layout! Learn more

10-Day Weather Forecast

Advertisements
Track Severe Weather on mobile